Nearby METAR Reports


KSYR - Syracuse, New York, USA
Distance from station: SE 5mi, 8km
Updated: Fri, 18-Jan-2019 10:54pm EST
Light snow, Overcast
Light snow, Overcast
 Wind from WNW
Wind: WNW 7 mph , 11 km/h
Temperature: 27°F , -3°C
Wind Chill: 19°F , -7°C
Dew Point: 23°F , -5°C
Humidity: 86%
Barometer: 30.19 inHg , 1022.4 hPa
Summary: Light Snow
Clouds: Overcast
Visibility: 8 miles , 13 km
Cloud details: Overcast 3300 ft
2019/01/19 03:54 KSYR 190354Z 29006KT 8SM -SN OVC033 M03/M05 A3019 RMK AO2 SLP224 P0000 T10281050
KFZY - Fulton, New York, USA
Distance from station: NW 17mi, 27km
Updated: Fri, 18-Jan-2019 10:54pm EST
Overcast
Overcast
 Wind from NW
Wind: NW 12 mph , 19 km/h
Temperature: 28°F , -2°C
Wind Chill: 18°F , -8°C
Dew Point: 16°F , -9°C
Humidity: 59%
Barometer: 30.18 inHg , 1022 hPa
Clouds: Overcast
Visibility: 10 miles , 16 km
Cloud details: Overcast 3600 ft
2019/01/19 03:54 KFZY 190354Z AUTO 32010KT 10SM OVC036 M02/M09 A3018 RMK AO2 SNE20 SLP228 P0000 T10171089
 
KRME - Rome/Griffiss Af, New York, USA
Distance from station: E 39mi, 62km
Updated: Fri, 18-Jan-2019 10:53pm EST
Overcast
Overcast
 Wind from NW
Wind: NW 3 mph , 6 km/h
Temperature: 27°F , -3°C
Dew Point: 19°F , -7°C
Humidity: 74%
Barometer: 30.18 inHg , 1022 hPa
Clouds: Overcast
Visibility: 10 miles , 16 km
Cloud details: Overcast 4900 ft
2019/01/19 03:53 KRME 190353Z AUTO 31003KT 10SM OVC049 M03/M07 A3018 RMK AO2 SLP226 T10331067
KITH - Ithaca/Tompkins, New York, USA
Distance from station: SSW 51mi, 82km
Updated: Fri, 18-Jan-2019 10:56pm EST
Overcast
Overcast
 Wind from WNW
Wind: WNW 8 mph , 13 km/h
Temperature: 27°F , -3°C
Wind Chill: 19°F , -7°C
Dew Point: 21°F , -6°C
Humidity: 80%
Barometer: 30.15 inHg , 1021 hPa
Clouds: Overcast
Visibility: 10 miles , 16 km
Cloud details: Overcast 3900 ft
2019/01/19 03:56 KITH 190356Z AUTO 30007KT 10SM OVC039 M03/M06 A3015 RMK AO2 SNE17 SLP223 P0000 T10281056
 
KART - Watertown, New York, USA
Distance from station: N 56mi, 91km
Updated: Fri, 18-Jan-2019 11:31pm EST
Overcast
Overcast
 Wind from NNE
Wind: NNE 20 mph , 31 km/h, Gust: 25 mph , 41 km/h
Temperature: 16°F , -9°C
Wind Chill: -1°F , -18°C
Dew Point: 10°F , -12°C
Humidity: 79%
Barometer: 30.24 inHg , 1024 hPa
Clouds: Overcast
Visibility: 8 miles , 13 km
Cloud details: Mostly cloudy 1500 ft
Overcast 2700 ft
2019/01/19 04:31 KART 190431Z AUTO 02017G22KT 8SM BKN015 OVC027 M09/M12 A3024 RMK AO2 PK WND 01026/0412 UPE24 P0000 T10941122
KPEO - Penn Yan, New York, USA
Distance from station: SW 58mi, 93km
Updated: Fri, 18-Jan-2019 10:53pm EST
Overcast
Overcast
 Wind from WNW
Wind: WNW 6 mph , 9 km/h
Temperature: 28°F , -2°C
Wind Chill: 21°F , -6°C
Dew Point: 19°F , -7°C
Humidity: 69%
Barometer: 30.17 inHg , 1021.7 hPa
Clouds: Overcast
Visibility: 10 miles , 16 km
Cloud details: Overcast 4400 ft
2019/01/19 03:53 KPEO 190353Z AUTO 29005KT 10SM OVC044 M02/M07 A3017 RMK AO2 SLP227 T10221072
 
KGTB - Fort Drum/Wheele, New York, USA
Distance from station: NNE 64mi, 102km
Updated: Fri, 18-Jan-2019 10:56pm EST
Light snow, Overcast
Light snow, Overcast
 Wind from NNE
Wind: NNE 15 mph , 24 km/h, Gust: 24 mph , 39 km/h
Temperature: 18°F , -8°C
Wind Chill: 4°F , -16°C
Dew Point: 12°F , -11°C
Humidity: 79%
Barometer: 30.18 inHg , 1022 hPa
Summary: Light Snow
Clouds: Overcast
Visibility: 10 miles , 16 km
Cloud details: Overcast 1000 ft
2019/01/19 03:56 KGTB 190356Z 02013G21KT 10SM -SN OVC010 M08/M11 A3018 RMK UPB37E42SNB42 OVC V BKN CIG 009 RWY03 SLP232 P0000 T10801107 $
CWQP - Point Petre (mar, Ontario, Canada
Distance from station: NW 67mi, 107km
Updated: Fri, 18-Jan-2019 11:00pm EST

 Wind from N
Wind: N 6 mph , 9 km/h
Temperature: 23°F , -5°C
Wind Chill: 16°F , -9°C
Dew Point: 16°F , -9°C
Humidity: 74%
2019/01/19 04:00 CWQP 190400Z AUTO 35005KT M05/M09 RMK AO1 SOG 01 3013 SLP231 T10461089
 
KBGM - Binghamton, New York, USA
Distance from station: S 67mi, 107km
Updated: Fri, 18-Jan-2019 11:10pm EST
Overcast
Overcast
 Wind from NNW
Wind: NNW 12 mph , 19 km/h
Temperature: 27°F , -3°C
Wind Chill: 16°F , -9°C
Dew Point: 19°F , -7°C
Humidity: 74%
Barometer: 30.09 inHg , 1019 hPa
Clouds: Overcast
Visibility: 10 miles , 16 km
Cloud details: Few Clouds 2300 ft
Overcast 3000 ft
2019/01/19 04:10 KBGM 190410Z 34010KT 10SM FEW023 OVC030 M03/M07 A3009 RMK AO2 T10331067
CYGK - Kingston Arpt (m, Ontario, Canada
Distance from station: NNW 75mi, 121km
Updated: Fri, 18-Jan-2019 11:00pm EST
Light snow, Overcast
Light snow, Overcast
 Wind from N
Wind: N 16 mph , 26 km/h, Gust: 24 mph , 39 km/h
Temperature: 16°F , -9°C
Wind Chill: 1°F , -17°C
Dew Point: 7°F , -14°C
Humidity: 67%
Barometer: 30.24 inHg , 1024 hPa
Summary: Light Snow
Clouds: Overcast
Visibility: 15 miles , 24 km
Cloud details: Mostly cloudy 4800 ft
Overcast 14000 ft
2019/01/19 04:00 CYGK 190400Z 01014G21KT 15SM -SN BKN048 OVC140 M09/M14 A3024 RMK SC7AC1 LAST STFD OBS/NEXT 191100 UTC SLP248